Doddington, United Kingdom
Current Conditions -  °F | °C
As of 9:58 PM on Sunday 25 Jan 2015 (Local Time) from EGUN Reporting Station
Overcast Overcast  
Wind Chill: 40°   Ceiling: 1000
Heat Index: 44°   Visibility: 6mi
Dew Point: 42°   Wind: 7mph
Humidity: 91%   Direction: 240°WSW
Pressure: 30.24"   Gusts: NA
Location:  52.5°N, 0.06°E
Report Text: EGUN 252158Z AUTO 24006KT 9999 OVC010 07/05 A3024 RMK AO2 SLP244 T00680054
Loading
Personal Weather Stations






























Interactive Weather Map New forecast layout! Learn more

10-Day Weather Forecast

Advertisements
Track Severe Weather on mobile